sensor_id;sensor_type;location;lat;lon;timestamp;pressure;altitude;pressure_sealevel;temperature;humidity
77227;BME280;66234;47.642;19.144;2023-02-16T00:00:17;101737.53;;;-2.07;88.51
77227;BME280;66234;47.642;19.144;2023-02-16T00:03:21;101736.06;;;-2.11;88.09
77227;BME280;66234;47.642;19.144;2023-02-16T00:06:24;101743.06;;;-2.12;88.41
77227;BME280;66234;47.642;19.144;2023-02-16T00:09:27;101737.44;;;-2.20;88.50
77227;BME280;66234;47.642;19.144;2023-02-16T00:12:30;101734.75;;;-2.18;88.16
77227;BME280;66234;47.642;19.144;2023-02-16T00:15:51;101729.97;;;-2.12;87.95
77227;BME280;66234;47.642;19.144;2023-02-16T00:18:54;101730.22;;;-2.16;88.16
77227;BME280;66234;47.642;19.144;2023-02-16T00:21:58;101727.88;;;-2.21;88.09
77227;BME280;66234;47.642;19.144;2023-02-16T00:25:01;101733.22;;;-2.22;88.11
77227;BME280;66234;47.642;19.144;2023-02-16T00:28:11;101734.44;;;-2.28;88.38
77227;BME280;66234;47.642;19.144;2023-02-16T00:31:19;101734.34;;;-2.26;88.56
77227;BME280;66234;47.642;19.144;2023-02-16T00:37:28;101726.66;;;-2.29;88.16
77227;BME280;66234;47.642;19.144;2023-02-16T00:40:33;101728.50;;;-2.31;88.33
77227;BME280;66234;47.642;19.144;2023-02-16T00:43:35;101730.09;;;-2.29;87.80
77227;BME280;66234;47.642;19.144;2023-02-16T00:46:40;101726.94;;;-2.34;88.61
77227;BME280;66234;47.642;19.144;2023-02-16T00:49:42;101728.28;;;-2.42;88.18
77227;BME280;66234;47.642;19.144;2023-02-16T00:52:46;101718.50;;;-2.39;88.18
77227;BME280;66234;47.642;19.144;2023-02-16T00:55:49;101712.50;;;-2.41;87.84
77227;BME280;66234;47.642;19.144;2023-02-16T00:58:52;101717.91;;;-2.44;87.77
77227;BME280;66234;47.642;19.144;2023-02-16T01:01:55;101708.91;;;-2.54;88.25
77227;BME280;66234;47.642;19.144;2023-02-16T01:04:59;101716.00;;;-2.56;88.20
77227;BME280;66234;47.642;19.144;2023-02-16T01:08:01;101720.28;;;-2.55;88.43
77227;BME280;66234;47.642;19.144;2023-02-16T01:11:23;101715.72;;;-2.51;88.52
77227;BME280;66234;47.642;19.144;2023-02-16T01:14:28;101714.53;;;-2.46;87.97
77227;BME280;66234;47.642;19.144;2023-02-16T01:17:31;101713.78;;;-2.48;87.63
77227;BME280;66234;47.642;19.144;2023-02-16T01:20:33;101713.22;;;-2.53;87.78
77227;BME280;66234;47.642;19.144;2023-02-16T01:23:41;101702.66;;;-2.51;88.02
77227;BME280;66234;47.642;19.144;2023-02-16T01:26:47;101707.47;;;-2.59;88.21
77227;BME280;66234;47.642;19.144;2023-02-16T01:29:50;101702.59;;;-2.65;88.37
77227;BME280;66234;47.642;19.144;2023-02-16T01:32:53;101700.75;;;-2.63;88.24
77227;BME280;66234;47.642;19.144;2023-02-16T01:35:56;101699.88;;;-2.64;87.63
77227;BME280;66234;47.642;19.144;2023-02-16T01:39:00;101692.97;;;-2.65;87.76
77227;BME280;66234;47.642;19.144;2023-02-16T01:42:33;101686.75;;;-2.78;87.74
77227;BME280;66234;47.642;19.144;2023-02-16T01:45:40;101675.78;;;-2.84;87.76
77227;BME280;66234;47.642;19.144;2023-02-16T01:48:46;101677.84;;;-2.89;87.93
77227;BME280;66234;47.642;19.144;2023-02-16T01:51:56;101678.75;;;-2.90;88.42
77227;BME280;66234;47.642;19.144;2023-02-16T01:55:19;101669.91;;;-2.88;88.52
77227;BME280;66234;47.642;19.144;2023-02-16T02:01:43;101666.34;;;-2.87;88.04
77227;BME280;66234;47.642;19.144;2023-02-16T02:04:52;101659.06;;;-2.82;88.33
77227;BME280;66234;47.642;19.144;2023-02-16T02:11:26;101663.22;;;-2.93;88.53
77227;BME280;66234;47.642;19.144;2023-02-16T02:14:36;101658.06;;;-2.95;88.96
77227;BME280;66234;47.642;19.144;2023-02-16T02:17:39;101657.47;;;-3.00;88.51
77227;BME280;66234;47.642;19.144;2023-02-16T02:27:46;101649.81;;;-3.03;88.34
77227;BME280;66234;47.642;19.144;2023-02-16T02:31:22;101659.28;;;-3.00;88.66
77227;BME280;66234;47.642;19.144;2023-02-16T02:34:53;101659.09;;;-2.97;88.00
77227;BME280;66234;47.642;19.144;2023-02-16T02:38:21;101655.97;;;-2.88;88.11
77227;BME280;66234;47.642;19.144;2023-02-16T02:41:50;101649.59;;;-2.84;87.93
77227;BME280;66234;47.642;19.144;2023-02-16T02:45:24;101662.72;;;-3.00;87.67
77227;BME280;66234;47.642;19.144;2023-02-16T02:48:31;101651.59;;;-3.03;88.12
77227;BME280;66234;47.642;19.144;2023-02-16T02:51:34;101653.78;;;-2.96;87.70
77227;BME280;66234;47.642;19.144;2023-02-16T02:54:45;101647.00;;;-3.00;87.93
77227;BME280;66234;47.642;19.144;2023-02-16T02:58:06;101652.34;;;-3.01;88.41
77227;BME280;66234;47.642;19.144;2023-02-16T03:01:30;101645.59;;;-3.05;88.40
77227;BME280;66234;47.642;19.144;2023-02-16T03:04:33;101637.59;;;-3.02;88.13
77227;BME280;66234;47.642;19.144;2023-02-16T03:07:37;101637.59;;;-3.02;87.98
77227;BME280;66234;47.642;19.144;2023-02-16T03:10:56;101641.13;;;-3.03;87.74
77227;BME280;66234;47.642;19.144;2023-02-16T03:14:34;101636.56;;;-3.00;87.47
77227;BME280;66234;47.642;19.144;2023-02-16T03:17:39;101637.66;;;-3.04;87.93
77227;BME280;66234;47.642;19.144;2023-02-16T03:21:02;101635.13;;;-3.05;87.94
77227;BME280;66234;47.642;19.144;2023-02-16T03:24:27;101633.66;;;-3.09;88.09
77227;BME280;66234;47.642;19.144;2023-02-16T03:27:49;101633.66;;;-3.09;87.66
77227;BME280;66234;47.642;19.144;2023-02-16T03:31:14;101643.00;;;-3.05;88.01
77227;BME280;66234;47.642;19.144;2023-02-16T03:34:18;101636.56;;;-3.00;90.23
77227;BME280;66234;47.642;19.144;2023-02-16T03:37:22;101637.56;;;-2.87;91.31
77227;BME280;66234;47.642;19.144;2023-02-16T03:40:25;101629.84;;;-2.74;91.47
77227;BME280;66234;47.642;19.144;2023-02-16T03:43:29;101633.31;;;-2.74;91.59
77227;BME280;66234;47.642;19.144;2023-02-16T03:46:32;101638.53;;;-2.74;91.72
77227;BME280;66234;47.642;19.144;2023-02-16T03:49:35;101631.78;;;-2.78;91.59
77227;BME280;66234;47.642;19.144;2023-02-16T03:52:38;101628.34;;;-2.64;91.77
77227;BME280;66234;47.642;19.144;2023-02-16T03:55:45;101624.38;;;-2.56;90.92
77227;BME280;66234;47.642;19.144;2023-02-16T03:58:48;101622.34;;;-2.51;90.84
77227;BME280;66234;47.642;19.144;2023-02-16T04:01:51;101627.47;;;-2.49;90.90
77227;BME280;66234;47.642;19.144;2023-02-16T04:04:54;101634.06;;;-2.58;90.98
77227;BME280;66234;47.642;19.144;2023-02-16T04:07:56;101631.66;;;-2.61;91.71
77227;BME280;66234;47.642;19.144;2023-02-16T04:10:59;101632.94;;;-2.68;91.54
77227;BME280;66234;47.642;19.144;2023-02-16T04:14:01;101628.00;;;-2.58;91.27
77227;BME280;66234;47.642;19.144;2023-02-16T04:17:04;101628.94;;;-2.59;90.91
77227;BME280;66234;47.642;19.144;2023-02-16T04:20:09;101626.94;;;-2.70;91.09
77227;BME280;66234;47.642;19.144;2023-02-16T04:23:14;101626.63;;;-2.79;91.64
77227;BME280;66234;47.642;19.144;2023-02-16T04:26:16;101634.56;;;-2.81;91.50
77227;BME280;66234;47.642;19.144;2023-02-16T04:29:19;101627.44;;;-2.93;91.11
77227;BME280;66234;47.642;19.144;2023-02-16T04:32:22;101634.25;;;-2.90;90.88
77227;BME280;66234;47.642;19.144;2023-02-16T04:35:24;101627.63;;;-2.96;90.78
77227;BME280;66234;47.642;19.144;2023-02-16T04:38:27;101639.09;;;-2.98;91.11
77227;BME280;66234;47.642;19.144;2023-02-16T04:41:30;101636.81;;;-3.04;90.95
77227;BME280;66234;47.642;19.144;2023-02-16T04:44:33;101636.75;;;-3.18;90.85
77227;BME280;66234;47.642;19.144;2023-02-16T04:47:36;101635.25;;;-3.22;91.13
77227;BME280;66234;47.642;19.144;2023-02-16T04:50:40;101636.84;;;-3.20;91.29
77227;BME280;66234;47.642;19.144;2023-02-16T04:53:43;101630.88;;;-3.22;91.15
77227;BME280;66234;47.642;19.144;2023-02-16T04:56:46;101628.72;;;-3.15;91.29
77227;BME280;66234;47.642;19.144;2023-02-16T04:59:49;101623.25;;;-3.11;91.47
77227;BME280;66234;47.642;19.144;2023-02-16T05:02:52;101626.19;;;-3.01;91.13
77227;BME280;66234;47.642;19.144;2023-02-16T05:05:56;101626.09;;;-3.00;90.93
77227;BME280;66234;47.642;19.144;2023-02-16T05:08:58;101624.25;;;-2.98;91.11
77227;BME280;66234;47.642;19.144;2023-02-16T05:12:01;101623.97;;;-2.93;90.75
77227;BME280;66234;47.642;19.144;2023-02-16T05:15:38;101634.44;;;-2.93;90.71
77227;BME280;66234;47.642;19.144;2023-02-16T05:18:41;101637.31;;;-2.98;90.49
77227;BME280;66234;47.642;19.144;2023-02-16T05:21:44;101636.63;;;-3.01;91.20
77227;BME280;66234;47.642;19.144;2023-02-16T05:24:47;101626.00;;;-2.98;91.21
77227;BME280;66234;47.642;19.144;2023-02-16T05:27:50;101626.00;;;-2.98;91.08
77227;BME280;66234;47.642;19.144;2023-02-16T05:30:53;101624.94;;;-3.10;91.27
77227;BME280;66234;47.642;19.144;2023-02-16T05:33:55;101626.19;;;-3.01;90.97
77227;BME280;66234;47.642;19.144;2023-02-16T05:36:58;101623.38;;;-2.98;90.93
77227;BME280;66234;47.642;19.144;2023-02-16T05:40:01;101621.66;;;-2.84;90.84
77227;BME280;66234;47.642;19.144;2023-02-16T05:43:03;101629.25;;;-2.79;90.52
77227;BME280;66234;47.642;19.144;2023-02-16T05:46:07;101621.75;;;-2.85;89.84
77227;BME280;66234;47.642;19.144;2023-02-16T05:49:10;101629.19;;;-2.93;90.82
77227;BME280;66234;47.642;19.144;2023-02-16T05:52:12;101626.81;;;-2.82;91.12
77227;BME280;66234;47.642;19.144;2023-02-16T05:55:15;101615.63;;;-2.70;90.42
77227;BME280;66234;47.642;19.144;2023-02-16T05:58:17;101621.53;;;-2.67;90.40
77227;BME280;66234;47.642;19.144;2023-02-16T06:01:20;101630.69;;;-2.60;89.92
77227;BME280;66234;47.642;19.144;2023-02-16T06:04:23;101621.97;;;-2.45;89.77
77227;BME280;66234;47.642;19.144;2023-02-16T06:07:25;101620.53;;;-2.50;89.45
77227;BME280;66234;47.642;19.144;2023-02-16T06:10:28;101621.28;;;-2.48;89.78
77227;BME280;66234;47.642;19.144;2023-02-16T06:13:30;101622.44;;;-2.38;90.30
77227;BME280;66234;47.642;19.144;2023-02-16T06:16:34;101620.94;;;-2.28;90.07
77227;BME280;66234;47.642;19.144;2023-02-16T06:19:37;101612.72;;;-2.22;89.96
77227;BME280;66234;47.642;19.144;2023-02-16T06:22:40;101612.63;;;-2.21;89.67
77227;BME280;66234;47.642;19.144;2023-02-16T06:25:43;101614.78;;;-2.13;89.87
77227;BME280;66234;47.642;19.144;2023-02-16T06:28:47;101621.53;;;-1.95;89.60
77227;BME280;66234;47.642;19.144;2023-02-16T06:31:49;101619.81;;;-1.96;88.40
77227;BME280;66234;47.642;19.144;2023-02-16T06:34:52;101619.44;;;-1.90;88.55
77227;BME280;66234;47.642;19.144;2023-02-16T06:37:55;101616.53;;;-1.72;88.66
77227;BME280;66234;47.642;19.144;2023-02-16T06:40:57;101623.75;;;-1.61;88.42
77227;BME280;66234;47.642;19.144;2023-02-16T06:44:03;101611.44;;;-1.60;88.99
77227;BME280;66234;47.642;19.144;2023-02-16T06:47:06;101609.84;;;-1.49;89.39
77227;BME280;66234;47.642;19.144;2023-02-16T06:50:09;101603.09;;;-1.53;89.70
77227;BME280;66234;47.642;19.144;2023-02-16T06:53:12;101609.44;;;-1.43;90.55
77227;BME280;66234;47.642;19.144;2023-02-16T06:56:14;101610.63;;;-1.34;89.77
77227;BME280;66234;47.642;19.144;2023-02-16T06:59:17;101614.06;;;-1.20;90.21
77227;BME280;66234;47.642;19.144;2023-02-16T07:02:20;101614.41;;;-1.12;90.41
77227;BME280;66234;47.642;19.144;2023-02-16T07:05:23;101613.06;;;-1.05;89.26
77227;BME280;66234;47.642;19.144;2023-02-16T07:08:26;101613.84;;;-0.90;89.89
77227;BME280;66234;47.642;19.144;2023-02-16T07:11:29;101613.00;;;-0.91;89.20
77227;BME280;66234;47.642;19.144;2023-02-16T07:14:31;101613.66;;;-0.87;88.19
77227;BME280;66234;47.642;19.144;2023-02-16T07:17:34;101612.06;;;-0.90;87.98
77227;BME280;66234;47.642;19.144;2023-02-16T07:20:37;101625.31;;;-0.79;88.54
77227;BME280;66234;47.642;19.144;2023-02-16T07:23:40;101621.16;;;-0.56;87.94
77227;BME280;66234;47.642;19.144;2023-02-16T07:26:42;101616.97;;;-0.46;87.42
77227;BME280;66234;47.642;19.144;2023-02-16T07:29:45;101614.66;;;-0.51;86.72
77227;BME280;66234;47.642;19.144;2023-02-16T07:32:48;101617.06;;;-0.48;88.20
77227;BME280;66234;47.642;19.144;2023-02-16T07:35:50;101615.41;;;-0.36;87.51
77227;BME280;66234;47.642;19.144;2023-02-16T07:38:53;101608.06;;;-0.44;86.83
77227;BME280;66234;47.642;19.144;2023-02-16T07:41:56;101610.38;;;-0.27;87.13
77227;BME280;66234;47.642;19.144;2023-02-16T07:45:00;101604.81;;;-0.22;86.30
77227;BME280;66234;47.642;19.144;2023-02-16T07:48:03;101603.94;;;-0.10;86.64
77227;BME280;66234;47.642;19.144;2023-02-16T07:51:06;101613.94;;;-0.03;85.66
77227;BME280;66234;47.642;19.144;2023-02-16T07:54:09;101610.88;;;0.03;85.81
77227;BME280;66234;47.642;19.144;2023-02-16T07:57:13;101605.09;;;-0.02;85.52
77227;BME280;66234;47.642;19.144;2023-02-16T08:00:16;101606.56;;;0.03;85.88
77227;BME280;66234;47.642;19.144;2023-02-16T08:03:18;101611.41;;;0.09;85.65
77227;BME280;66234;47.642;19.144;2023-02-16T08:06:21;101614.13;;;0.20;84.94
77227;BME280;66234;47.642;19.144;2023-02-16T08:09:25;101608.47;;;0.00;85.57
77227;BME280;66234;47.642;19.144;2023-02-16T08:12:27;101616.03;;;0.05;85.97
77227;BME280;66234;47.642;19.144;2023-02-16T08:15:30;101613.06;;;-0.03;85.45
77227;BME280;66234;47.642;19.144;2023-02-16T08:18:33;101608.03;;;-0.06;86.66
77227;BME280;66234;47.642;19.144;2023-02-16T08:21:39;101614.78;;;0.11;86.86
77227;BME280;66234;47.642;19.144;2023-02-16T08:24:43;101617.50;;;0.22;86.27
77227;BME280;66234;47.642;19.144;2023-02-16T08:27:46;101613.63;;;0.51;85.76
77227;BME280;66234;47.642;19.144;2023-02-16T08:30:49;101609.41;;;0.48;85.02
77227;BME280;66234;47.642;19.144;2023-02-16T08:33:52;101610.84;;;0.65;84.34
77227;BME280;66234;47.642;19.144;2023-02-16T08:36:56;101615.00;;;0.80;84.86
77227;BME280;66234;47.642;19.144;2023-02-16T08:39:59;101622.34;;;0.87;83.96
77227;BME280;66234;47.642;19.144;2023-02-16T08:43:04;101614.38;;;1.00;84.59
77227;BME280;66234;47.642;19.144;2023-02-16T08:46:06;101613.63;;;1.21;83.36
77227;BME280;66234;47.642;19.144;2023-02-16T08:49:11;101617.56;;;1.16;83.07
77227;BME280;66234;47.642;19.144;2023-02-16T08:52:13;101615.56;;;1.30;83.13
77227;BME280;66234;47.642;19.144;2023-02-16T08:55:16;101609.38;;;1.42;82.93
77227;BME280;66234;47.642;19.144;2023-02-16T08:58:19;101609.56;;;1.63;82.60
77227;BME280;66234;47.642;19.144;2023-02-16T09:01:22;101610.88;;;1.80;81.81
77227;BME280;66234;47.642;19.144;2023-02-16T09:04:26;101619.63;;;1.69;81.48
77227;BME280;66234;47.642;19.144;2023-02-16T09:07:30;101623.00;;;1.82;81.48
77227;BME280;66234;47.642;19.144;2023-02-16T09:10:37;101616.53;;;1.86;82.26
77227;BME280;66234;47.642;19.144;2023-02-16T09:13:41;101616.56;;;2.19;81.52
77227;BME280;66234;47.642;19.144;2023-02-16T09:16:44;101605.41;;;2.27;80.12
77227;BME280;66234;47.642;19.144;2023-02-16T09:19:47;101603.69;;;2.48;79.96
77227;BME280;66234;47.642;19.144;2023-02-16T09:22:50;101599.88;;;2.41;80.37
77227;BME280;66234;47.642;19.144;2023-02-16T09:25:54;101606.41;;;2.68;79.98
77227;BME280;66234;47.642;19.144;2023-02-16T09:28:56;101610.44;;;2.83;79.89
77227;BME280;66234;47.642;19.144;2023-02-16T09:32:00;101607.53;;;2.97;79.78
77227;BME280;66234;47.642;19.144;2023-02-16T09:35:04;101613.88;;;3.06;79.35
77227;BME280;66234;47.642;19.144;2023-02-16T09:38:07;101614.94;;;3.35;78.07
77227;BME280;66234;47.642;19.144;2023-02-16T09:47:37;101613.53;;;2.99;79.30
77227;BME280;66234;47.642;19.144;2023-02-16T09:50:42;101610.72;;;3.12;79.67
77227;BME280;66234;47.642;19.144;2023-02-16T09:54:10;101609.06;;;3.31;79.36
77227;BME280;66234;47.642;19.144;2023-02-16T10:10:34;101594.34;;;3.18;81.59
77227;BME280;66234;47.642;19.144;2023-02-16T10:13:47;101595.50;;;3.04;81.92
77227;BME280;66234;47.642;19.144;2023-02-16T10:20:31;101585.50;;;3.08;81.90
77227;BME280;66234;47.642;19.144;2023-02-16T10:23:51;101584.56;;;3.29;81.62
77227;BME280;66234;47.642;19.144;2023-02-16T10:27:02;101585.03;;;3.55;80.89
77227;BME280;66234;47.642;19.144;2023-02-16T10:30:17;101585.16;;;3.54;80.78
77227;BME280;66234;47.642;19.144;2023-02-16T10:33:41;101579.53;;;3.68;80.17
77227;BME280;66234;47.642;19.144;2023-02-16T10:46:46;101556.00;;;4.34;78.58
77227;BME280;66234;47.642;19.144;2023-02-16T10:49:50;101547.94;;;4.55;78.05
77227;BME280;66234;47.642;19.144;2023-02-16T10:52:57;101548.13;;;4.72;77.33
77227;BME280;66234;47.642;19.144;2023-02-16T10:56:01;101542.56;;;4.94;76.52
77227;BME280;66234;47.642;19.144;2023-02-16T10:59:24;101527.63;;;5.03;75.95
77227;BME280;66234;47.642;19.144;2023-02-16T11:02:29;101524.41;;;5.19;75.81
77227;BME280;66234;47.642;19.144;2023-02-16T11:05:38;101521.72;;;5.38;75.37
77227;BME280;66234;47.642;19.144;2023-02-16T11:11:55;101514.78;;;5.83;73.15
77227;BME280;66234;47.642;19.144;2023-02-16T11:15:22;101514.16;;;5.98;73.28
77227;BME280;66234;47.642;19.144;2023-02-16T11:18:39;101516.03;;;6.15;72.33
77227;BME280;66234;47.642;19.144;2023-02-16T11:21:46;101512.59;;;6.32;72.07
77227;BME280;66234;47.642;19.144;2023-02-16T11:24:49;101504.91;;;6.47;71.38
77227;BME280;66234;47.642;19.144;2023-02-16T11:27:57;101506.09;;;6.62;70.63
77227;BME280;66234;47.642;19.144;2023-02-16T11:34:24;101494.75;;;7.13;68.52
77227;BME280;66234;47.642;19.144;2023-02-16T11:37:32;101484.81;;;7.23;67.53
77227;BME280;66234;47.642;19.144;2023-02-16T11:40:34;101481.91;;;7.34;67.94
77227;BME280;66234;47.642;19.144;2023-02-16T11:43:40;101477.25;;;7.53;67.45
77227;BME280;66234;47.642;19.144;2023-02-16T11:46:43;101473.00;;;7.68;66.96
77227;BME280;66234;47.642;19.144;2023-02-16T11:49:47;101463.34;;;7.75;65.27
77227;BME280;66234;47.642;19.144;2023-02-16T11:52:53;101461.59;;;7.84;65.13
77227;BME280;66234;47.642;19.144;2023-02-16T11:59:19;101461.47;;;8.01;63.96
77227;BME280;66234;47.642;19.144;2023-02-16T12:09:19;101432.81;;;8.45;62.72
77227;BME280;66234;47.642;19.144;2023-02-16T12:12:36;101430.00;;;8.55;60.91
77227;BME280;66234;47.642;19.144;2023-02-16T12:19:28;101419.84;;;8.90;60.38
77227;BME280;66234;47.642;19.144;2023-02-16T12:26:03;101412.50;;;8.92;60.48
77227;BME280;66234;47.642;19.144;2023-02-16T12:46:18;101384.44;;;9.67;57.30
77227;BME280;66234;47.642;19.144;2023-02-16T12:49:30;101379.16;;;9.89;57.00
77227;BME280;66234;47.642;19.144;2023-02-16T12:52:42;101371.22;;;10.04;56.04
77227;BME280;66234;47.642;19.144;2023-02-16T12:56:08;101370.88;;;10.07;55.43
77227;BME280;66234;47.642;19.144;2023-02-16T12:59:33;101364.88;;;10.36;55.58
77227;BME280;66234;47.642;19.144;2023-02-16T13:02:43;101361.91;;;10.53;54.75
77227;BME280;66234;47.642;19.144;2023-02-16T13:05:57;101355.06;;;11.17;53.38
77227;BME280;66234;47.642;19.144;2023-02-16T13:15:41;101341.22;;;11.28;51.74
77227;BME280;66234;47.642;19.144;2023-02-16T13:18:48;101334.69;;;11.30;52.58
77227;BME280;66234;47.642;19.144;2023-02-16T13:25:11;101330.22;;;11.52;51.15
77227;BME280;66234;47.642;19.144;2023-02-16T13:38:48;101309.03;;;11.86;50.49
77227;BME280;66234;47.642;19.144;2023-02-16T13:45:42;101320.06;;;11.98;49.38
77227;BME280;66234;47.642;19.144;2023-02-16T13:48:48;101314.41;;;11.86;49.57
77227;BME280;66234;47.642;19.144;2023-02-16T13:51:53;101305.97;;;11.89;49.70
77227;BME280;66234;47.642;19.144;2023-02-16T13:54:58;101303.03;;;12.05;49.61
77227;BME280;66234;47.642;19.144;2023-02-16T13:58:05;101306.84;;;11.96;50.05
77227;BME280;66234;47.642;19.144;2023-02-16T14:07:34;101304.63;;;12.21;49.06
77227;BME280;66234;47.642;19.144;2023-02-16T14:13:57;101298.19;;;12.15;49.50
77227;BME280;66234;47.642;19.144;2023-02-16T14:23:27;101285.81;;;12.14;49.34
77227;BME280;66234;47.642;19.144;2023-02-16T14:26:59;101300.53;;;11.83;50.20
77227;BME280;66234;47.642;19.144;2023-02-16T14:30:03;101291.41;;;11.77;50.78
77227;BME280;66234;47.642;19.144;2023-02-16T14:33:19;101305.06;;;11.82;50.69
77227;BME280;66234;47.642;19.144;2023-02-16T14:36:25;101291.22;;;11.79;51.14
77227;BME280;66234;47.642;19.144;2023-02-16T14:39:28;101289.94;;;11.75;50.96
77227;BME280;66234;47.642;19.144;2023-02-16T14:42:33;101288.66;;;11.56;51.61
77227;BME280;66234;47.642;19.144;2023-02-16T14:46:00;101286.66;;;11.43;50.86
77227;BME280;66234;47.642;19.144;2023-02-16T14:56:17;101280.81;;;11.90;47.48
77227;BME280;66234;47.642;19.144;2023-02-16T14:59:38;101286.88;;;11.78;46.88
77227;BME280;66234;47.642;19.144;2023-02-16T15:02:55;101277.47;;;11.52;47.83
77227;BME280;66234;47.642;19.144;2023-02-16T15:06:00;101284.00;;;11.14;48.83
77227;BME280;66234;47.642;19.144;2023-02-16T15:09:18;101281.41;;;11.21;48.41
77227;BME280;66234;47.642;19.144;2023-02-16T15:12:28;101284.38;;;10.82;49.75
77227;BME280;66234;47.642;19.144;2023-02-16T15:15:45;101288.66;;;10.54;50.60
77227;BME280;66234;47.642;19.144;2023-02-16T15:18:52;101291.13;;;10.41;51.38
77227;BME280;66234;47.642;19.144;2023-02-16T15:25:28;101283.13;;;9.96;53.26
77227;BME280;66234;47.642;19.144;2023-02-16T15:28:33;101280.94;;;9.69;54.03
77227;BME280;66234;47.642;19.144;2023-02-16T15:31:37;101279.72;;;9.49;54.75
77227;BME280;66234;47.642;19.144;2023-02-16T15:34:40;101293.63;;;9.36;55.76
77227;BME280;66234;47.642;19.144;2023-02-16T15:37:42;101283.06;;;9.20;56.89
77227;BME280;66234;47.642;19.144;2023-02-16T15:40:46;101288.94;;;9.08;57.28
77227;BME280;66234;47.642;19.144;2023-02-16T15:43:49;101277.13;;;8.94;57.81
77227;BME280;66234;47.642;19.144;2023-02-16T15:47:05;101281.34;;;8.73;59.03
77227;BME280;66234;47.642;19.144;2023-02-16T15:50:12;101284.34;;;8.62;59.72
77227;BME280;66234;47.642;19.144;2023-02-16T15:53:22;101280.72;;;8.47;60.67
77227;BME280;66234;47.642;19.144;2023-02-16T16:02:44;101285.19;;;8.06;62.73
77227;BME280;66234;47.642;19.144;2023-02-16T16:06:02;101283.53;;;7.89;63.96
77227;BME280;66234;47.642;19.144;2023-02-16T16:09:19;101285.66;;;7.77;64.03
77227;BME280;66234;47.642;19.144;2023-02-16T16:12:23;101288.47;;;7.68;64.67
77227;BME280;66234;47.642;19.144;2023-02-16T16:15:28;101282.81;;;7.63;65.13
77227;BME280;66234;47.642;19.144;2023-02-16T16:18:47;101279.78;;;7.50;66.06
77227;BME280;66234;47.642;19.144;2023-02-16T16:21:53;101274.75;;;7.39;66.13
77227;BME280;66234;47.642;19.144;2023-02-16T16:24:56;101285.41;;;7.39;66.55
77227;BME280;66234;47.642;19.144;2023-02-16T16:27:59;101288.50;;;7.26;66.49
77227;BME280;66234;47.642;19.144;2023-02-16T16:34:30;101298.91;;;7.12;67.14
77227;BME280;66234;47.642;19.144;2023-02-16T16:37:34;101292.09;;;7.09;67.72
77227;BME280;66234;47.642;19.144;2023-02-16T16:40:38;101294.22;;;7.06;67.42
77227;BME280;66234;47.642;19.144;2023-02-16T16:43:52;101295.28;;;7.13;66.97
77227;BME280;66234;47.642;19.144;2023-02-16T16:46:56;101306.44;;;7.16;67.13
77227;BME280;66234;47.642;19.144;2023-02-16T16:56:34;101303.53;;;7.02;67.70
77227;BME280;66234;47.642;19.144;2023-02-16T16:59:38;101295.25;;;7.05;67.37
77227;BME280;66234;47.642;19.144;2023-02-16T17:02:40;101295.72;;;7.00;67.78
77227;BME280;66234;47.642;19.144;2023-02-16T17:05:44;101291.19;;;6.93;67.91
77227;BME280;66234;47.642;19.144;2023-02-16T17:08:47;101296.63;;;6.83;68.51
77227;BME280;66234;47.642;19.144;2023-02-16T17:11:50;101300.31;;;6.90;68.08
77227;BME280;66234;47.642;19.144;2023-02-16T17:14:53;101290.78;;;6.80;68.62
77227;BME280;66234;47.642;19.144;2023-02-16T17:17:57;101291.50;;;6.64;69.01
77227;BME280;66234;47.642;19.144;2023-02-16T17:21:00;101285.97;;;6.57;69.52
77227;BME280;66234;47.642;19.144;2023-02-16T17:24:03;101292.38;;;6.47;69.96
77227;BME280;66234;47.642;19.144;2023-02-16T17:27:08;101285.81;;;6.33;70.54
77227;BME280;66234;47.642;19.144;2023-02-16T17:30:12;101292.59;;;6.28;70.67
77227;BME280;66234;47.642;19.144;2023-02-16T17:33:15;101298.50;;;6.22;70.67
77227;BME280;66234;47.642;19.144;2023-02-16T17:36:19;101293.31;;;6.12;71.37
77227;BME280;66234;47.642;19.144;2023-02-16T17:39:23;101297.47;;;5.97;71.79
77227;BME280;66234;47.642;19.144;2023-02-16T17:42:27;101302.03;;;5.87;72.02
77227;BME280;66234;47.642;19.144;2023-02-16T17:45:30;101292.28;;;5.78;72.43
77227;BME280;66234;47.642;19.144;2023-02-16T17:48:34;101282.78;;;5.58;73.12
77227;BME280;66234;47.642;19.144;2023-02-16T17:51:38;101276.84;;;5.47;73.51
77227;BME280;66234;47.642;19.144;2023-02-16T17:54:41;101276.25;;;5.35;73.66
77227;BME280;66234;47.642;19.144;2023-02-16T17:57:43;101285.47;;;5.31;73.95
77227;BME280;66234;47.642;19.144;2023-02-16T18:00:46;101286.97;;;5.06;74.45
77227;BME280;66234;47.642;19.144;2023-02-16T18:03:49;101282.78;;;4.77;75.37
77227;BME280;66234;47.642;19.144;2023-02-16T18:06:52;101287.59;;;4.54;75.76
77227;BME280;66234;47.642;19.144;2023-02-16T18:09:55;101291.53;;;4.41;76.70
77227;BME280;66234;47.642;19.144;2023-02-16T18:12:58;101283.59;;;4.22;77.60
77227;BME280;66234;47.642;19.144;2023-02-16T18:16:01;101286.81;;;3.97;77.74
77227;BME280;66234;47.642;19.144;2023-02-16T18:19:15;101291.00;;;3.80;78.47
77227;BME280;66234;47.642;19.144;2023-02-16T18:22:17;101289.88;;;3.83;78.67
77227;BME280;66234;47.642;19.144;2023-02-16T18:25:20;101298.78;;;3.72;78.77
77227;BME280;66234;47.642;19.144;2023-02-16T18:28:28;101303.09;;;3.54;78.36
77227;BME280;66234;47.642;19.144;2023-02-16T18:31:32;101304.38;;;3.29;79.85
77227;BME280;66234;47.642;19.144;2023-02-16T18:34:36;101311.13;;;3.03;80.15
77227;BME280;66234;47.642;19.144;2023-02-16T18:37:39;101301.84;;;3.09;80.38
77227;BME280;66234;47.642;19.144;2023-02-16T18:40:43;101310.44;;;3.01;80.71
77227;BME280;66234;47.642;19.144;2023-02-16T18:43:47;101316.34;;;2.84;80.65
77227;BME280;66234;47.642;19.144;2023-02-16T18:46:50;101312.94;;;2.73;81.14